createdAt,value
2023-01-09T00:00:47.820Z,99211.13
2023-01-09T00:03:14.643Z,99221.59
2023-01-09T00:05:41.323Z,99200.09
2023-01-09T00:08:08.173Z,99212.50
2023-01-09T00:10:35.337Z,99201.97
2023-01-09T00:13:02.075Z,99196.84
2023-01-09T00:15:28.826Z,99219.19
2023-01-09T00:17:55.459Z,99203.66
2023-01-09T00:20:22.194Z,99236.09
2023-01-09T00:22:48.846Z,99238.53
2023-01-09T00:25:15.543Z,99226.13
2023-01-09T00:27:42.365Z,99246.94
2023-01-09T00:30:10.332Z,99298.94
2023-01-09T00:32:36.970Z,99286.00
2023-01-09T00:35:04.006Z,99281.69
2023-01-09T00:37:30.677Z,99270.53
2023-01-09T00:39:57.420Z,99211.59
2023-01-09T00:42:30.737Z,99254.19
2023-01-09T00:45:01.905Z,99281.31
2023-01-09T00:47:35.924Z,99235.19
2023-01-09T00:50:09.455Z,99251.50
2023-01-09T00:52:38.255Z,99234.78
2023-01-09T00:55:05.972Z,99231.31
2023-01-09T00:57:33.167Z,99237.97
2023-01-09T01:00:00.582Z,99236.31
2023-01-09T01:02:27.275Z,99216.97
2023-01-09T01:05:13.243Z,99219.44
2023-01-09T01:07:40.136Z,99237.13
2023-01-09T01:10:12.995Z,99247.38
2023-01-09T01:12:40.402Z,99251.28
2023-01-09T01:15:08.535Z,99235.75
2023-01-09T01:17:37.463Z,99254.13
2023-01-09T01:20:06.657Z,99247.19
2023-01-09T01:22:33.399Z,99239.63
2023-01-09T01:25:00.123Z,99239.69
2023-01-09T01:27:28.785Z,99265.38
2023-01-09T01:29:55.971Z,99264.00
2023-01-09T01:32:22.853Z,99240.53
2023-01-09T01:34:49.628Z,99265.38
2023-01-09T01:37:16.296Z,99262.03
2023-01-09T01:39:43.023Z,99262.59
2023-01-09T01:42:12.956Z,99257.31
2023-01-09T01:45:07.911Z,99260.31
2023-01-09T01:47:45.078Z,99259.47
2023-01-09T01:50:35.431Z,99264.44
2023-01-09T01:53:08.348Z,99272.38
2023-01-09T01:55:43.728Z,99288.84
2023-01-09T01:58:14.422Z,99288.84
2023-01-09T02:00:45.023Z,99288.53
2023-01-09T02:03:15.382Z,99281.75
2023-01-09T02:05:42.093Z,99280.41
2023-01-09T02:08:09.276Z,99283.88
2023-01-09T02:10:38.206Z,99286.97
2023-01-09T02:13:06.362Z,99293.91
2023-01-09T02:15:57.072Z,99266.59
2023-01-09T02:18:38.936Z,99299.63
2023-01-09T02:21:29.773Z,99301.91
2023-01-09T02:24:09.883Z,99270.56
2023-01-09T02:27:01.851Z,99242.72
2023-01-09T02:29:40.658Z,99302.13
2023-01-09T02:32:36.922Z,99273.59
2023-01-09T02:35:16.823Z,99296.63
2023-01-09T02:37:55.159Z,99293.47
2023-01-09T02:40:33.664Z,99297.41
2023-01-09T02:43:01.654Z,99277.13
2023-01-09T02:45:28.365Z,99298.66
2023-01-09T02:47:55.047Z,99290.38
2023-01-09T02:50:27.877Z,99247.63
2023-01-09T02:53:22.210Z,99295.13
2023-01-09T02:56:03.912Z,99298.88
2023-01-09T02:59:09.035Z,99296.84
2023-01-09T03:01:57.197Z,99299.63
2023-01-09T03:04:39.575Z,99271.59
2023-01-09T03:07:33.301Z,99297.75
2023-01-09T03:10:19.530Z,99299.69
2023-01-09T03:12:49.075Z,99279.81
2023-01-09T03:15:18.515Z,99302.09
2023-01-09T03:17:48.543Z,99296.31
2023-01-09T03:20:21.309Z,99305.47
2023-01-09T03:22:59.783Z,99276.63
2023-01-09T03:25:28.449Z,99310.34
2023-01-09T03:28:01.585Z,99306.78
2023-01-09T03:30:30.349Z,99312.88
2023-01-09T03:32:57.565Z,99304.88
2023-01-09T03:35:24.338Z,99310.00
2023-01-09T03:37:51.925Z,99309.09
2023-01-09T03:40:19.547Z,99298.16
2023-01-09T03:42:46.911Z,99305.38
2023-01-09T03:45:14.091Z,99312.97
2023-01-09T03:47:40.771Z,99319.22
2023-01-09T03:50:08.142Z,99307.06
2023-01-09T03:52:36.092Z,99305.72
2023-01-09T03:55:02.954Z,99312.78
2023-01-09T03:57:29.839Z,99289.84
2023-01-09T03:59:56.594Z,99320.25
2023-01-09T04:02:23.332Z,99323.56
2023-01-09T04:04:49.945Z,99312.94
2023-01-09T04:07:16.867Z,99294.72
2023-01-09T04:09:43.506Z,99302.16
2023-01-09T04:12:10.224Z,99315.88
2023-01-09T04:14:36.937Z,99263.59
2023-01-09T04:17:03.604Z,99315.44
2023-01-09T04:19:30.247Z,99261.69
2023-01-09T04:21:56.986Z,99326.41
2023-01-09T04:24:23.576Z,99322.66
2023-01-09T04:26:50.313Z,99259.34
2023-01-09T04:29:16.916Z,99337.91
2023-01-09T04:31:44.004Z,99308.69
2023-01-09T04:34:10.687Z,99328.09
2023-01-09T04:36:37.404Z,99326.69
2023-01-09T04:39:04.175Z,99325.31
2023-01-09T04:41:49.077Z,99331.53
2023-01-09T04:44:26.385Z,99343.56
2023-01-09T04:46:54.639Z,99322.81
2023-01-09T04:49:22.264Z,99344.66
2023-01-09T04:51:49.199Z,99284.41
2023-01-09T04:54:16.119Z,99327.81
2023-01-09T04:56:42.958Z,99335.28
2023-01-09T04:59:09.750Z,99344.84
2023-01-09T05:01:36.668Z,99305.56
2023-01-09T05:04:03.977Z,99350.78
2023-01-09T05:06:31.436Z,99330.03
2023-01-09T05:08:58.441Z,99368.22
2023-01-09T05:11:25.679Z,99365.44
2023-01-09T05:13:53.343Z,99374.28
2023-01-09T05:16:21.296Z,99352.16
2023-01-09T05:18:48.323Z,99344.41
2023-01-09T05:21:15.017Z,99369.84
2023-01-09T05:23:41.797Z,99352.00
2023-01-09T05:26:08.479Z,99370.09
2023-01-09T05:28:35.149Z,99381.72
2023-01-09T05:31:01.875Z,99360.97
2023-01-09T05:33:28.561Z,99391.13
2023-01-09T05:35:55.258Z,99371.75
2023-01-09T05:38:22.081Z,99389.47
2023-01-09T05:40:48.826Z,99398.06
2023-01-09T05:43:15.564Z,99382.53
2023-01-09T05:45:43.384Z,99371.50
2023-01-09T05:48:10.203Z,99378.25
2023-01-09T05:50:36.830Z,99364.00
2023-01-09T05:53:03.765Z,99395.13
2023-01-09T05:55:30.478Z,99375.22
2023-01-09T05:57:57.084Z,99397.50
2023-01-09T06:00:23.958Z,99402.44
2023-01-09T06:02:50.693Z,99395.81
2023-01-09T06:05:17.541Z,99395.56
2023-01-09T06:07:44.364Z,99400.66
2023-01-09T06:10:13.451Z,99403.00
2023-01-09T06:12:40.513Z,99398.31
2023-01-09T06:15:09.057Z,99387.38
2023-01-09T06:17:36.024Z,99399.16
2023-01-09T06:20:02.935Z,99385.56
2023-01-09T06:22:29.724Z,99414.09
2023-01-09T06:24:56.416Z,99409.38
2023-01-09T06:27:23.079Z,99414.09
2023-01-09T06:29:49.795Z,99401.09
2023-01-09T06:32:16.608Z,99421.28
2023-01-09T06:34:43.353Z,99355.47
2023-01-09T06:37:10.565Z,99387.22
2023-01-09T06:39:37.263Z,99420.03
2023-01-09T06:42:04.110Z,99415.72
2023-01-09T06:44:30.970Z,99386.41
2023-01-09T06:46:57.766Z,99416.41
2023-01-09T06:49:24.964Z,99413.66
2023-01-09T06:51:51.802Z,99431.53
2023-01-09T06:54:19.389Z,99405.66
2023-01-09T06:56:46.077Z,99403.16
2023-01-09T06:59:13.247Z,99438.75
2023-01-09T07:01:40.227Z,99434.59
2023-01-09T07:04:08.148Z,99424.06
2023-01-09T07:06:35.160Z,99434.19
2023-01-09T07:09:01.921Z,99421.44
2023-01-09T07:11:28.558Z,99408.16
2023-01-09T07:13:55.360Z,99432.41
2023-01-09T07:16:22.088Z,99436.00
2023-01-09T07:18:48.821Z,99436.84
2023-01-09T07:21:15.620Z,99441.41
2023-01-09T07:23:42.397Z,99431.00
2023-01-09T07:26:09.537Z,99414.56
2023-01-09T07:28:36.417Z,99446.78
2023-01-09T07:31:04.725Z,99433.50
2023-01-09T07:33:31.469Z,99444.47
2023-01-09T07:35:58.164Z,99443.78
2023-01-09T07:38:24.966Z,99415.97
2023-01-09T07:40:51.916Z,99442.69
2023-01-09T07:43:18.772Z,99440.19
2023-01-09T07:45:46.902Z,99429.38
2023-01-09T07:48:13.711Z,99435.47
2023-01-09T07:50:40.534Z,99445.44
2023-01-09T07:53:07.360Z,99444.34
2023-01-09T07:55:34.060Z,99451.97
2023-01-09T07:58:00.922Z,99451.13
2023-01-09T08:00:27.644Z,99428.72
2023-01-09T08:02:55.042Z,99456.66
2023-01-09T08:05:22.044Z,99469.00
2023-01-09T08:07:50.854Z,99458.47
2023-01-09T08:10:19.948Z,99466.75
2023-01-09T08:12:47.642Z,99468.94
2023-01-09T08:15:15.250Z,99430.34
2023-01-09T08:17:43.479Z,99459.00
2023-01-09T08:20:12.460Z,99429.66
2023-01-09T08:22:41.977Z,99466.03
2023-01-09T08:25:12.085Z,99467.72
2023-01-09T08:27:39.369Z,99477.25
2023-01-09T08:30:06.832Z,99471.31
2023-01-09T08:32:33.459Z,99465.34
2023-01-09T08:35:00.299Z,99420.94
2023-01-09T08:37:27.095Z,99462.84
2023-01-09T08:39:53.858Z,99474.72
2023-01-09T08:42:39.800Z,99464.50
2023-01-09T08:45:25.658Z,99460.91
2023-01-09T08:47:52.638Z,99463.09
2023-01-09T08:50:19.701Z,99480.22
2023-01-09T08:52:46.732Z,99478.88
2023-01-09T08:55:13.469Z,99462.00
2023-01-09T08:57:49.302Z,99476.06
2023-01-09T09:00:17.452Z,99480.06
2023-01-09T09:02:44.446Z,99475.06
2023-01-09T09:05:11.629Z,99455.81
2023-01-09T09:07:38.354Z,99460.81
2023-01-09T09:10:05.510Z,99467.16
2023-01-09T09:12:32.275Z,99472.66
2023-01-09T09:15:15.793Z,99484.59
2023-01-09T09:17:44.558Z,99480.97
2023-01-09T09:20:12.019Z,99474.72
2023-01-09T09:22:39.274Z,99465.75
2023-01-09T09:25:06.293Z,99485.69
2023-01-09T09:27:33.401Z,99485.38
2023-01-09T09:30:00.299Z,99481.63
2023-01-09T09:32:27.116Z,99423.13
2023-01-09T09:34:53.725Z,99467.78
2023-01-09T09:37:20.450Z,99488.38
2023-01-09T09:39:47.301Z,99482.03
2023-01-09T09:43:13.550Z,99493.38
2023-01-09T09:45:56.007Z,99464.63
2023-01-09T09:48:45.689Z,99472.34
2023-01-09T09:51:40.209Z,99505.31
2023-01-09T09:54:21.864Z,99515.53
2023-01-09T09:56:53.021Z,99509.16
2023-01-09T09:59:24.122Z,99501.97
2023-01-09T10:02:00.861Z,99518.28
2023-01-09T10:04:32.195Z,99522.31
2023-01-09T10:07:11.175Z,99524.63
2023-01-09T10:09:46.107Z,99519.72
2023-01-09T10:12:19.517Z,99525.69
2023-01-09T10:14:46.303Z,99502.00
2023-01-09T10:17:45.271Z,99533.44
2023-01-09T10:20:23.890Z,99531.44
2023-01-09T10:23:39.736Z,99521.22
2023-01-09T10:26:21.159Z,99529.53
2023-01-09T10:28:50.692Z,99536.06
2023-01-09T10:31:22.266Z,99499.53
2023-01-09T10:34:16.816Z,99545.88
2023-01-09T10:36:55.839Z,99545.56
2023-01-09T10:39:44.799Z,99516.22
2023-01-09T10:42:20.452Z,99542.66
2023-01-09T10:44:53.676Z,99540.84
2023-01-09T10:47:31.772Z,99537.75
2023-01-09T10:49:59.313Z,99544.09
2023-01-09T10:52:36.223Z,99523.34
2023-01-09T10:55:14.463Z,99554.88
2023-01-09T10:57:47.696Z,99536.63
2023-01-09T11:00:18.007Z,99561.53
2023-01-09T11:02:45.369Z,99556.09
2023-01-09T11:05:21.141Z,99543.66
2023-01-09T11:07:53.545Z,99538.38
2023-01-09T11:10:22.780Z,99551.94
2023-01-09T11:12:49.565Z,99537.53
2023-01-09T11:15:29.162Z,99566.75
2023-01-09T11:18:16.095Z,99561.00
2023-01-09T11:20:43.076Z,99555.50
2023-01-09T11:23:33.063Z,99564.47
2023-01-09T11:26:02.271Z,99562.53
2023-01-09T11:28:29.699Z,99569.44
2023-01-09T11:31:02.558Z,99536.94
2023-01-09T11:33:37.888Z,99568.63
2023-01-09T11:36:14.935Z,99581.00
2023-01-09T11:38:52.537Z,99581.97
2023-01-09T11:41:23.318Z,99585.13
2023-01-09T11:43:53.536Z,99588.59
2023-01-09T11:46:31.075Z,99570.34
2023-01-09T11:48:59.515Z,99574.50
2023-01-09T11:51:31.686Z,99571.19
2023-01-09T11:54:00.638Z,99565.31
2023-01-09T11:56:27.745Z,99589.88
2023-01-09T11:58:54.679Z,99589.34
2023-01-09T12:01:39.296Z,99606.63
2023-01-09T12:04:20.451Z,99577.69
2023-01-09T12:07:34.032Z,99604.34
2023-01-09T12:10:09.807Z,99598.41
2023-01-09T12:12:54.856Z,99608.34
2023-01-09T12:15:33.899Z,99608.34
2023-01-09T12:18:12.524Z,99635.75
2023-01-09T12:21:18.146Z,99633.09
2023-01-09T12:24:09.833Z,99623.91
2023-01-09T12:26:50.105Z,99635.53
2023-01-09T12:29:44.443Z,99648.19
2023-01-09T12:32:17.227Z,99659.06
2023-01-09T12:35:22.361Z,99658.38
2023-01-09T12:38:14.268Z,99655.44
2023-01-09T12:41:13.691Z,99653.22
2023-01-09T12:44:09.660Z,99657.69
2023-01-09T12:46:47.837Z,99649.38
2023-01-09T12:49:44.411Z,99665.31
2023-01-09T12:52:24.036Z,99651.31
2023-01-09T12:54:59.876Z,99632.72
2023-01-09T12:57:31.764Z,99668.19
2023-01-09T13:00:03.296Z,99668.31
2023-01-09T13:02:45.222Z,99646.75
2023-01-09T13:05:34.174Z,99648.25
2023-01-09T13:08:05.904Z,99643.13
2023-01-09T13:10:42.309Z,99678.00
2023-01-09T13:13:19.927Z,99684.63
2023-01-09T13:15:53.160Z,99691.28
2023-01-09T13:18:27.449Z,99675.00
2023-01-09T13:20:58.500Z,99696.34
2023-01-09T13:23:40.457Z,99710.06
2023-01-09T13:26:14.531Z,99715.66
2023-01-09T13:28:49.152Z,99700.09
2023-01-09T13:31:19.449Z,99714.00
2023-01-09T13:33:53.011Z,99710.97
2023-01-09T13:36:29.479Z,99709.22
2023-01-09T13:39:01.067Z,99701.06
2023-01-09T13:41:48.334Z,99732.91
2023-01-09T13:44:18.242Z,99731.13
2023-01-09T13:47:05.487Z,99734.59
2023-01-09T13:49:41.320Z,99744.03
2023-01-09T13:52:37.090Z,99737.09
2023-01-09T13:55:04.021Z,99742.38
2023-01-09T13:57:36.370Z,99751.81
2023-01-09T14:00:15.483Z,99762.91
2023-01-09T14:02:44.718Z,99770.81
2023-01-09T14:05:14.204Z,99765.25
2023-01-09T14:07:48.981Z,99776.81
2023-01-09T14:10:27.505Z,99785.09
2023-01-09T14:12:57.230Z,99785.09
2023-01-09T14:15:32.789Z,99794.00
2023-01-09T14:18:06.762Z,99782.44
2023-01-09T14:20:39.794Z,99808.50
2023-01-09T14:23:31.454Z,99789.13
2023-01-09T14:25:55.671Z,99819.53
2023-01-09T14:28:27.544Z,99813.97
2023-01-09T14:30:54.163Z,99838.81
2023-01-09T14:33:21.816Z,99836.88
2023-01-09T14:36:10.269Z,99838.66
2023-01-09T14:38:44.784Z,99845.75
2023-01-09T14:41:58.187Z,99852.72
2023-01-09T14:44:40.908Z,99863.59
2023-01-09T14:47:37.456Z,99848.50
2023-01-09T14:50:25.563Z,99873.06
2023-01-09T14:52:59.852Z,99856.41
2023-01-09T14:55:53.172Z,99888.47
2023-01-09T14:58:32.107Z,99901.69
2023-01-09T15:01:04.326Z,99890.31
2023-01-09T15:03:45.773Z,99916.97
2023-01-09T15:06:18.554Z,99894.50
2023-01-09T15:08:48.026Z,99927.00
2023-01-09T15:11:14.918Z,99915.50
2023-01-09T15:13:46.255Z,99922.97
2023-01-09T15:16:19.545Z,99930.75
2023-01-09T15:18:52.814Z,99929.09
2023-01-09T15:21:23.647Z,99918.41
2023-01-09T15:23:50.714Z,99920.06
2023-01-09T15:26:29.252Z,99945.63
2023-01-09T15:29:13.125Z,99949.25
2023-01-09T15:31:43.451Z,99939.00
2023-01-09T15:34:17.721Z,99960.09
2023-01-09T15:36:45.127Z,99949.78
2023-01-09T15:39:19.942Z,99966.22
2023-01-09T15:42:05.862Z,99959.13
2023-01-09T15:44:36.408Z,99967.31
2023-01-09T15:47:06.628Z,99985.94
2023-01-09T15:49:34.124Z,99974.56
2023-01-09T15:52:02.240Z,99985.38
2023-01-09T15:54:31.197Z,99980.66
2023-01-09T15:57:25.954Z,99999.84
2023-01-09T15:59:57.850Z,99998.75
2023-01-09T16:02:44.361Z,100004.84
2023-01-09T16:05:16.265Z,100013.03
2023-01-09T16:07:47.676Z,100013.44
2023-01-09T16:10:30.513Z,100008.69
2023-01-09T16:12:57.787Z,100008.84
2023-01-09T16:15:25.485Z,100029.81
2023-01-09T16:18:29.282Z,100042.28
2023-01-09T16:21:31.226Z,100051.59
2023-01-09T16:24:01.075Z,100041.44
2023-01-09T16:26:29.887Z,100044.34
2023-01-09T16:28:57.079Z,100053.22
2023-01-09T16:31:30.147Z,100060.88
2023-01-09T16:34:06.367Z,100080.03
2023-01-09T16:36:36.763Z,100077.78
2023-01-09T16:39:06.653Z,100085.41
2023-01-09T16:41:52.562Z,100092.47
2023-01-09T16:44:19.475Z,100085.50
2023-01-09T16:46:46.575Z,100088.47
2023-01-09T16:49:19.476Z,100112.22
2023-01-09T16:51:47.405Z,100114.84
2023-01-09T16:54:14.839Z,100109.84
2023-01-09T16:56:44.189Z,100100.53
2023-01-09T16:59:29.411Z,100122.31
2023-01-09T17:01:56.407Z,100128.56
2023-01-09T17:04:26.161Z,100109.22
2023-01-09T17:06:52.836Z,100113.53
2023-01-09T17:09:23.666Z,100144.13
2023-01-09T17:11:51.953Z,100138.16
2023-01-09T17:14:18.560Z,100136.34
2023-01-09T17:16:48.224Z,100144.81
2023-01-09T17:19:20.366Z,100153.31
2023-01-09T17:21:47.157Z,100162.63
2023-01-09T17:24:34.905Z,100170.69
2023-01-09T17:27:31.828Z,100159.25
2023-01-09T17:29:59.452Z,100179.63
2023-01-09T17:32:27.743Z,100180.28
2023-01-09T17:34:54.757Z,100189.88
2023-01-09T17:37:21.796Z,100191.22
2023-01-09T17:39:48.951Z,100190.09
2023-01-09T17:42:15.631Z,100210.13
2023-01-09T17:44:42.594Z,100202.34
2023-01-09T17:47:15.838Z,100219.47
2023-01-09T17:49:43.036Z,100181.13
2023-01-09T17:52:09.995Z,100142.38
2023-01-09T17:54:36.914Z,100230.69
2023-01-09T17:57:03.643Z,100230.69
2023-01-09T17:59:30.978Z,100241.00
2023-01-09T18:01:57.927Z,100227.63
2023-01-09T18:04:24.715Z,100235.94
2023-01-09T18:06:51.526Z,100231.31
2023-01-09T18:09:18.496Z,100253.56
2023-01-09T18:11:45.277Z,100258.09
2023-01-09T18:14:13.777Z,100270.91
2023-01-09T18:16:40.849Z,100254.44
2023-01-09T18:19:07.593Z,100275.84
2023-01-09T18:21:34.482Z,100267.50
2023-01-09T18:24:02.302Z,100288.38
2023-01-09T18:26:29.039Z,100272.75
2023-01-09T18:28:58.597Z,100277.31
2023-01-09T18:31:27.470Z,100308.41
2023-01-09T18:33:56.596Z,100312.59
2023-01-09T18:36:29.848Z,100319.66
2023-01-09T18:38:58.964Z,100297.91
2023-01-09T18:41:26.649Z,100322.44
2023-01-09T18:43:56.250Z,100329.50
2023-01-09T18:46:26.245Z,100294.50
2023-01-09T18:48:54.537Z,100331.09
2023-01-09T18:51:22.818Z,100337.94
2023-01-09T18:53:50.658Z,100353.53
2023-01-09T18:56:19.845Z,100345.13
2023-01-09T18:58:47.868Z,100327.94
2023-01-09T19:01:15.918Z,100337.53
2023-01-09T19:03:42.740Z,100345.19
2023-01-09T19:06:10.179Z,100361.22
2023-01-09T19:08:37.423Z,100362.56
2023-01-09T19:11:04.605Z,100373.69
2023-01-09T19:13:33.448Z,100374.75
2023-01-09T19:16:00.812Z,100346.81
2023-01-09T19:18:29.417Z,100387.25
2023-01-09T19:20:56.235Z,100393.59
2023-01-09T19:23:26.196Z,100359.25
2023-01-09T19:25:54.017Z,100393.72
2023-01-09T19:28:21.555Z,100396.00
2023-01-09T19:30:55.988Z,100401.75
2023-01-09T19:33:24.747Z,100365.63
2023-01-09T19:35:52.824Z,100418.56
2023-01-09T19:38:22.421Z,100425.25
2023-01-09T19:40:49.558Z,100427.28
2023-01-09T19:43:25.925Z,100331.44
2023-01-09T19:45:56.978Z,100447.28
2023-01-09T19:48:27.108Z,100451.34
2023-01-09T19:51:07.776Z,100448.94
2023-01-09T19:53:35.057Z,100447.03
2023-01-09T19:56:14.379Z,100439.84
2023-01-09T19:58:42.919Z,100397.22
2023-01-09T20:01:14.398Z,100453.25
2023-01-09T20:03:43.403Z,100459.00
2023-01-09T20:06:17.470Z,100469.66
2023-01-09T20:08:47.575Z,100470.41
2023-01-09T20:11:15.817Z,100482.34
2023-01-09T20:13:43.181Z,100487.72
2023-01-09T20:16:20.263Z,100495.88
2023-01-09T20:18:48.174Z,100488.94
2023-01-09T20:23:51.326Z,100494.91
2023-01-09T20:26:18.746Z,100514.19
2023-01-09T20:28:45.775Z,100500.44
2023-01-09T20:31:16.277Z,100511.56
2023-01-09T20:33:43.412Z,100532.75
2023-01-09T20:36:10.718Z,100528.44
2023-01-09T20:38:39.273Z,100526.28
2023-01-09T20:41:08.381Z,100533.34
2023-01-09T20:43:36.203Z,100536.94
2023-01-09T20:46:07.433Z,100537.78
2023-01-09T20:48:34.189Z,100555.41
2023-01-09T20:51:08.172Z,100528.94
2023-01-09T20:53:34.911Z,100544.75
2023-01-09T20:56:03.614Z,100548.34
2023-01-09T20:58:30.693Z,100537.31
2023-01-09T21:00:57.524Z,100556.84
2023-01-09T21:03:24.228Z,100505.53
2023-01-09T21:05:51.207Z,100557.78
2023-01-09T21:08:18.145Z,100572.06
2023-01-09T21:10:44.969Z,100571.69
2023-01-09T21:13:11.847Z,100570.38
2023-01-09T21:15:39.045Z,100589.91
2023-01-09T21:18:06.316Z,100575.66
2023-01-09T21:20:33.283Z,100584.97
2023-01-09T21:23:00.025Z,100567.69
2023-01-09T21:25:26.752Z,100575.34
2023-01-09T21:27:53.702Z,100559.34
2023-01-09T21:30:21.662Z,100602.75
2023-01-09T21:32:48.351Z,100598.53
2023-01-09T21:35:16.224Z,100604.75
2023-01-09T21:37:43.003Z,100610.47
2023-01-09T21:40:17.561Z,100578.97
2023-01-09T21:43:03.602Z,100615.16
2023-01-09T21:45:49.009Z,100627.19
2023-01-09T21:48:15.841Z,100644.88
2023-01-09T21:50:42.822Z,100659.81
2023-01-09T21:53:09.688Z,100643.34
2023-01-09T21:55:36.511Z,100672.06
2023-01-09T21:58:04.120Z,100663.09
2023-01-09T22:00:31.069Z,100673.72
2023-01-09T22:02:59.035Z,100670.09
2023-01-09T22:05:27.188Z,100674.59
2023-01-09T22:07:56.764Z,100672.72
2023-01-09T22:10:23.515Z,100701.72
2023-01-09T22:13:10.498Z,100706.97
2023-01-09T22:15:37.403Z,100638.44
2023-01-09T22:18:04.321Z,100705.94
2023-01-09T22:20:31.832Z,100709.94
2023-01-09T22:22:58.783Z,100716.88
2023-01-09T22:25:25.511Z,100709.41
2023-01-09T22:27:52.376Z,100710.69
2023-01-09T22:30:19.199Z,100666.00
2023-01-09T22:32:45.855Z,100722.56
2023-01-09T22:35:12.572Z,100703.84
2023-01-09T22:37:39.383Z,100715.19
2023-01-09T22:40:06.431Z,100730.34
2023-01-09T22:42:33.124Z,100653.28
2023-01-09T22:44:59.951Z,100737.09
2023-01-09T22:47:26.597Z,100747.19
2023-01-09T22:49:53.873Z,100745.50
2023-01-09T22:52:21.449Z,100761.69
2023-01-09T22:54:48.683Z,100772.53
2023-01-09T22:57:15.601Z,100766.41
2023-01-09T22:59:42.365Z,100753.09
2023-01-09T23:02:09.153Z,100771.59
2023-01-09T23:04:36.047Z,100778.63
2023-01-09T23:07:02.888Z,100793.81
2023-01-09T23:09:29.638Z,100795.69
2023-01-09T23:12:02.458Z,100800.03
2023-01-09T23:14:39.169Z,100804.09
2023-01-09T23:17:07.591Z,100807.72
2023-01-09T23:19:34.464Z,100808.88
2023-01-09T23:22:02.334Z,100810.03
2023-01-09T23:24:29.520Z,100801.09
2023-01-09T23:26:57.191Z,100830.03
2023-01-09T23:29:24.858Z,100826.94
2023-01-09T23:31:53.697Z,100816.19
2023-01-09T23:34:24.358Z,100837.03
2023-01-09T23:36:51.672Z,100831.97
2023-01-09T23:39:18.562Z,100842.50
2023-01-09T23:42:04.103Z,100841.13
2023-01-09T23:44:31.003Z,100829.44
2023-01-09T23:46:57.864Z,100854.69
2023-01-09T23:49:24.532Z,100869.41
2023-01-09T23:51:51.415Z,100869.81
2023-01-09T23:54:18.775Z,100883.91
2023-01-09T23:56:45.538Z,100879.81
2023-01-09T23:59:13.841Z,100871.38
